Dickson, Tennessee
Current Conditions -  °F | °C
As of 7:52 PM on Friday 24 Oct 2014 (Local Time) from KCKV Reporting Station
Clear Clear  
Wind Chill: 57°   Ceiling: Unl
Heat Index: 57°   Visibility: 7mi
Dew Point: 51°   Wind: 0mph
Humidity: 81%   Direction: NA
Pressure: 30.08"   Gusts: NA
Location:  36.08°N, 87.39°W
Report Text: KCKV 250052Z AUTO 00000KT 7SM CLR 14/11 A3008 RMK AO2 SLP184 T01390106
Loading
Personal Weather Stations






























Interactive Weather Map
Tropical Storm Tracking
New forecast layout! Learn more

10-Day Weather Forecast

Advertisements
Track Severe Weather on mobile